Pagrindinis puslapis
METAR-TAF:

METAR-TAF

Oro uostai :

Pecos, Teksasas, Jungtinės Amerikos Valstijos

platuma: 31-22-56N, ilguma: 103-30-38W, Aukštis: 796 m

Dabartinis oras

Ataskaita buvo paskelbta 32 minutes, ne 04:35 UTC
Vėjas 14 kt iš Rytų/Pietryčių su gūsio iki 20 kt
Temperatūra 23°C
Drėgmė 47%
Slėgis 1020 hPa
Matomumas: 16.1 km
Giedras dangus

METAR: KPEQ 140435Z AUTO 12014G20KT 10SM CLR 23/11 A3013 RMK AO2 T02270107 PWINO

Laikas: 00:07 (05:07 UTC)

Prognozė

Ataskaita buvo paskelbta 5 valandos ir 47 minutes, ne 23:20 UTC
Prognozė galioja nuo 14 metu 00 UTC su 14 metu 24 UTC
Vėjas 11 kt iš Rytų/Pietryčių
Matomumas: 10 km
Mažai debesys ne aukštis 25000 ft

TAF: KPEQ 132320Z 1400/1424 11011KT P6SM FEW250

Orai ataskaitas ir orų prognozės (METAR, TAF).

turimą stotys yra geltonos ir raudonos taškus žemėlapyje.

Perkelti pele per norėdami pamatyti stoties vardą.

Tada spustelėkite, norėdami matyti oro stebėjimo ir prognozės.

Norėdami pakeisti žemėlapį: spustelėkite ant žalios mygtukų su juodo kryžiaus žemyn,; žalią mygtuką su brūkšneliu, jei norite nutolinti; arba žalių rodyklių gretimoms žemėlapius.


METAR-TAF: